Terminal Aerodrome Forecast
Issued by NWS

Home | Current Version | Previous Version | Text Only | Print | Product List | Glossary On
Versions: 1 2 3 4 5 6 7 8 9 10 11 12 13 14 15 16 17 18 19 20 21 22 23 24
000
FTUS43 KGRB 301100
TAFOSH
TAF
KOSH 301127Z 3012/3112 33005KT 6SM BR SCT005 BKN010
      TEMPO 3012/3013 3SM BR
     FM301400 35006KT P6SM SCT025
     FM302000 28006KT P6SM VCSH SCT045 BKN080
     FM310300 23004KT P6SM SCT080=

USA.gov is the U.S. government's official web portal to all federal, state and local government web resources and services.